createdAt,value
2018-02-21T00:01:27.521Z,77.30
2018-02-21T00:03:54.014Z,77.50
2018-02-21T00:06:20.349Z,77.82
2018-02-21T00:08:46.697Z,77.23
2018-02-21T00:11:13.062Z,77.37
2018-02-21T00:13:39.410Z,77.65
2018-02-21T00:16:05.758Z,77.83
2018-02-21T00:18:32.128Z,77.96
2018-02-21T00:20:58.550Z,77.54
2018-02-21T00:23:24.902Z,77.75
2018-02-21T00:25:51.286Z,78.10
2018-02-21T00:28:17.742Z,78.04
2018-02-21T00:30:44.174Z,78.07
2018-02-21T00:33:10.677Z,78.09
2018-02-21T00:35:37.065Z,78.09
2018-02-21T00:38:03.481Z,78.09
2018-02-21T00:40:29.857Z,78.08
2018-02-21T00:42:56.242Z,77.86
2018-02-21T00:45:22.577Z,78.15
2018-02-21T00:47:48.901Z,77.72
2018-02-21T00:50:15.338Z,77.58
2018-02-21T00:52:41.670Z,77.75
2018-02-21T00:55:08.055Z,78.30
2018-02-21T00:57:34.461Z,78.57
2018-02-21T01:00:00.834Z,78.63
2018-02-21T01:02:27.286Z,78.48
2018-02-21T01:04:53.737Z,78.50
2018-02-21T01:07:20.132Z,78.43
2018-02-21T01:09:46.487Z,78.43
2018-02-21T01:12:12.910Z,78.33
2018-02-21T01:14:39.250Z,78.38
2018-02-21T01:17:05.637Z,78.51
2018-02-21T01:19:32.055Z,78.31
2018-02-21T01:21:58.438Z,78.29
2018-02-21T01:24:24.833Z,78.29
2018-02-21T01:26:51.330Z,78.52
2018-02-21T01:29:17.685Z,78.25
2018-02-21T01:31:44.134Z,78.40
2018-02-21T01:34:10.526Z,78.31
2018-02-21T01:36:36.897Z,78.53
2018-02-21T01:39:03.389Z,78.58
2018-02-21T01:41:29.822Z,78.31
2018-02-21T01:43:56.198Z,78.55
2018-02-21T01:46:22.565Z,78.44
2018-02-21T01:48:48.922Z,79.06
2018-02-21T01:51:15.362Z,78.92
2018-02-21T01:53:41.816Z,78.91
2018-02-21T01:56:08.205Z,78.50
2018-02-21T01:58:34.604Z,78.95
2018-02-21T02:01:00.995Z,79.07
2018-02-21T02:03:27.365Z,79.49
2018-02-21T02:05:53.813Z,79.46
2018-02-21T02:08:20.202Z,78.99
2018-02-21T02:10:46.633Z,78.90
2018-02-21T02:13:13.141Z,79.50
2018-02-21T02:15:39.530Z,79.92
2018-02-21T02:18:06.010Z,79.93
2018-02-21T02:20:32.516Z,79.76
2018-02-21T02:22:58.918Z,79.92
2018-02-21T02:25:25.334Z,80.21
2018-02-21T02:27:51.758Z,80.07
2018-02-21T02:30:18.178Z,80.29
2018-02-21T02:32:44.619Z,80.47
2018-02-21T02:35:11.054Z,80.87
2018-02-21T02:37:37.426Z,80.53
2018-02-21T02:40:03.824Z,80.03
2018-02-21T02:42:30.371Z,80.05
2018-02-21T02:44:56.724Z,79.87
2018-02-21T02:47:23.137Z,80.23
2018-02-21T02:49:49.601Z,79.85
2018-02-21T02:52:15.981Z,79.72
2018-02-21T02:54:42.309Z,80.30
2018-02-21T02:57:08.742Z,80.45
2018-02-21T02:59:35.118Z,80.45
2018-02-21T03:02:01.482Z,80.49
2018-02-21T03:04:27.893Z,80.98
2018-02-21T03:06:54.327Z,80.92
2018-02-21T03:09:20.748Z,80.50
2018-02-21T03:11:47.181Z,80.14
2018-02-21T03:14:13.536Z,80.25
2018-02-21T03:16:39.905Z,80.15
2018-02-21T03:19:06.374Z,79.94
2018-02-21T03:21:32.790Z,80.62
2018-02-21T03:23:59.208Z,80.54
2018-02-21T03:26:25.640Z,80.57
2018-02-21T03:28:52.001Z,80.67
2018-02-21T03:31:18.345Z,80.83
2018-02-21T03:33:44.778Z,80.77
2018-02-21T03:36:11.190Z,80.50
2018-02-21T03:38:37.599Z,80.56
2018-02-21T03:41:04.030Z,80.11
2018-02-21T03:43:30.502Z,80.27
2018-02-21T03:45:56.895Z,80.16
2018-02-21T03:48:23.278Z,80.44
2018-02-21T03:50:49.654Z,80.65
2018-02-21T03:53:16.091Z,80.04
2018-02-21T03:55:42.464Z,80.12
2018-02-21T03:58:08.801Z,80.26
2018-02-21T04:00:35.393Z,79.89
2018-02-21T04:03:01.802Z,79.83
2018-02-21T04:05:28.154Z,79.93
2018-02-21T04:07:54.556Z,79.55
2018-02-21T04:10:21.009Z,79.33
2018-02-21T04:12:47.405Z,79.91
2018-02-21T04:15:13.814Z,80.34
2018-02-21T04:17:40.212Z,80.57
2018-02-21T04:20:06.681Z,80.15
2018-02-21T04:22:33.129Z,80.22
2018-02-21T04:24:59.535Z,80.23
2018-02-21T04:27:26.049Z,80.19
2018-02-21T04:29:52.428Z,80.35
2018-02-21T04:32:18.888Z,79.58
2018-02-21T04:34:45.430Z,79.95
2018-02-21T04:37:11.792Z,79.72
2018-02-21T04:39:38.166Z,79.34
2018-02-21T04:42:04.673Z,79.91
2018-02-21T04:44:30.997Z,79.78
2018-02-21T04:46:57.398Z,79.62
2018-02-21T04:49:23.988Z,80.15
2018-02-21T04:51:50.392Z,80.00
2018-02-21T04:54:17.812Z,80.45
2018-02-21T05:10:01.124Z,80.82
2018-02-21T05:12:27.461Z,80.89
2018-02-21T05:14:53.929Z,81.01
2018-02-21T05:17:20.358Z,80.87
2018-02-21T05:19:46.765Z,80.67
2018-02-21T05:22:13.169Z,81.21
2018-02-21T05:24:39.697Z,81.28
2018-02-21T05:27:06.121Z,81.52
2018-02-21T05:29:32.463Z,81.50
2018-02-21T05:31:58.857Z,81.47
2018-02-21T05:34:25.277Z,81.33
2018-02-21T05:36:51.710Z,81.19
2018-02-21T05:39:18.041Z,81.36
2018-02-21T05:41:44.490Z,81.49
2018-02-21T05:44:10.949Z,80.83
2018-02-21T05:46:37.354Z,80.59
2018-02-21T05:49:03.751Z,80.48
2018-02-21T05:51:30.210Z,80.68
2018-02-21T05:53:56.686Z,80.67
2018-02-21T05:56:23.551Z,80.71
2018-02-21T05:58:51.276Z,80.99
2018-02-21T06:01:18.538Z,80.95
2018-02-21T06:03:45.121Z,80.75
2018-02-21T06:06:11.583Z,81.07
2018-02-21T06:08:38.010Z,81.22
2018-02-21T06:11:04.533Z,81.44
2018-02-21T06:13:30.974Z,81.01
2018-02-21T06:15:57.429Z,80.80
2018-02-21T06:18:23.839Z,81.05
2018-02-21T06:20:50.334Z,81.26
2018-02-21T06:23:16.721Z,80.97
2018-02-21T06:25:43.197Z,81.47
2018-02-21T06:28:09.818Z,81.12
2018-02-21T06:30:36.194Z,80.85
2018-02-21T06:33:02.584Z,80.62
2018-02-21T06:35:29.092Z,80.74
2018-02-21T06:37:55.464Z,81.26
2018-02-21T06:40:21.834Z,81.31
2018-02-21T06:42:48.301Z,81.21
2018-02-21T06:45:14.718Z,81.41
2018-02-21T06:47:41.097Z,81.41
2018-02-21T06:50:07.578Z,81.23
2018-02-21T06:52:33.974Z,81.14
2018-02-21T06:55:00.477Z,81.49
2018-02-21T06:57:26.875Z,82.29
2018-02-21T06:59:53.220Z,82.16
2018-02-21T07:02:31.885Z,81.94
2018-02-21T07:04:58.339Z,81.73
2018-02-21T07:07:24.760Z,81.47
2018-02-21T07:09:51.294Z,81.26
2018-02-21T07:12:17.754Z,81.23
2018-02-21T07:14:44.221Z,81.18
2018-02-21T07:17:10.621Z,80.76
2018-02-21T07:19:37.185Z,80.70
2018-02-21T07:22:03.640Z,80.77
2018-02-21T07:24:29.999Z,80.36
2018-02-21T07:26:56.485Z,80.68
2018-02-21T07:29:22.894Z,80.96
2018-02-21T07:31:49.329Z,80.52
2018-02-21T07:34:15.788Z,80.38
2018-02-21T07:36:42.174Z,80.36
2018-02-21T07:39:08.565Z,80.31
2018-02-21T07:41:35.047Z,80.20
2018-02-21T07:44:01.452Z,80.29
2018-02-21T07:46:27.816Z,80.65
2018-02-21T07:48:54.270Z,80.42
2018-02-21T07:51:20.649Z,80.16
2018-02-21T07:53:47.110Z,80.84
2018-02-21T07:56:13.554Z,81.68
2018-02-21T07:58:40.030Z,81.39
2018-02-21T08:01:06.567Z,80.92
2018-02-21T08:03:33.005Z,80.81
2018-02-21T08:05:59.641Z,80.68
2018-02-21T08:08:26.138Z,80.35
2018-02-21T08:10:52.527Z,80.56
2018-02-21T08:13:18.886Z,80.47
2018-02-21T08:15:45.315Z,80.44
2018-02-21T08:18:11.726Z,80.53
2018-02-21T08:20:38.210Z,80.54
2018-02-21T08:23:04.634Z,80.76
2018-02-21T08:25:31.025Z,80.67
2018-02-21T08:27:57.435Z,80.61
2018-02-21T08:30:24.040Z,80.24
2018-02-21T08:32:50.486Z,80.51
2018-02-21T08:35:16.921Z,79.91
2018-02-21T08:37:43.431Z,79.69
2018-02-21T08:40:09.833Z,80.30
2018-02-21T08:42:36.265Z,80.56
2018-02-21T08:45:02.721Z,80.33
2018-02-21T08:47:29.086Z,79.96
2018-02-21T08:49:55.470Z,80.10
2018-02-21T08:52:21.950Z,80.01
2018-02-21T08:54:48.392Z,79.87
2018-02-21T08:57:17.657Z,80.06
2018-02-21T08:59:45.211Z,80.05
2018-02-21T09:02:11.623Z,79.80
2018-02-21T09:04:37.985Z,80.05
2018-02-21T09:07:04.431Z,80.17
2018-02-21T09:09:30.823Z,80.29
2018-02-21T09:11:57.170Z,80.20
2018-02-21T09:14:23.614Z,80.31
2018-02-21T09:16:49.962Z,80.10
2018-02-21T09:19:16.397Z,79.89
2018-02-21T09:21:42.864Z,79.66
2018-02-21T09:24:09.230Z,79.73
2018-02-21T09:26:44.653Z,80.03
2018-02-21T09:29:11.405Z,80.29
2018-02-21T09:31:37.805Z,81.16
2018-02-21T09:34:04.250Z,81.20
2018-02-21T09:36:30.739Z,80.51
2018-02-21T09:38:57.210Z,79.82
2018-02-21T09:41:25.840Z,79.84
2018-02-21T09:43:52.301Z,79.82
2018-02-21T09:46:20.947Z,79.71
2018-02-21T09:48:49.334Z,80.15
2018-02-21T09:51:16.366Z,79.93
2018-02-21T09:53:42.739Z,80.06
2018-02-21T09:56:09.798Z,79.90
2018-02-21T09:58:36.394Z,79.50
2018-02-21T10:01:02.789Z,79.34
2018-02-21T10:03:29.290Z,79.77
2018-02-21T10:05:55.703Z,79.92
2018-02-21T10:08:22.054Z,79.84
2018-02-21T10:10:48.467Z,79.77
2018-02-21T10:13:14.830Z,79.56
2018-02-21T10:15:41.236Z,79.32
2018-02-21T10:18:07.712Z,79.69
2018-02-21T10:20:34.180Z,79.54
2018-02-21T10:23:00.690Z,80.27
2018-02-21T10:25:27.066Z,79.82
2018-02-21T10:27:53.539Z,80.08
2018-02-21T10:30:19.937Z,79.67
2018-02-21T10:32:46.423Z,80.14
2018-02-21T10:35:12.840Z,79.88
2018-02-21T10:37:41.382Z,79.33
2018-02-21T10:40:07.794Z,78.83
2018-02-21T10:42:34.290Z,79.15
2018-02-21T10:45:00.683Z,78.79
2018-02-21T10:47:27.041Z,78.87
2018-02-21T10:49:53.457Z,78.84
2018-02-21T10:52:19.906Z,79.10
2018-02-21T10:54:46.254Z,79.10
2018-02-21T10:57:12.706Z,79.17
2018-02-21T10:59:39.090Z,79.15
2018-02-21T11:02:05.560Z,79.09
2018-02-21T11:04:32.067Z,78.98
2018-02-21T11:06:58.482Z,79.26
2018-02-21T11:09:24.962Z,78.94
2018-02-21T11:11:51.453Z,79.04
2018-02-21T11:14:17.833Z,78.67
2018-02-21T11:16:44.245Z,78.89
2018-02-21T11:19:10.761Z,78.99
2018-02-21T11:21:37.113Z,79.10
2018-02-21T11:24:03.611Z,79.66
2018-02-21T11:26:30.062Z,79.98
2018-02-21T11:28:56.407Z,80.03
2018-02-21T11:31:22.897Z,79.92
2018-02-21T11:33:49.284Z,79.38
2018-02-21T11:36:15.678Z,79.24
2018-02-21T11:38:42.168Z,79.63
2018-02-21T11:41:08.626Z,79.61
2018-02-21T11:43:35.043Z,79.81
2018-02-21T11:46:01.614Z,79.77
2018-02-21T11:48:29.382Z,79.87
2018-02-21T11:50:55.875Z,79.93
2018-02-21T11:53:22.386Z,79.81
2018-02-21T11:55:48.737Z,79.81
2018-02-21T11:58:15.177Z,79.39
2018-02-21T12:00:41.665Z,79.89
2018-02-21T12:03:08.161Z,80.17
2018-02-21T12:05:35.469Z,80.17
2018-02-21T12:08:02.390Z,80.12
2018-02-21T12:10:28.838Z,80.37
2018-02-21T12:12:55.232Z,80.24
2018-02-21T12:15:21.713Z,80.23
2018-02-21T12:17:48.165Z,79.58
2018-02-21T12:20:14.498Z,80.01
2018-02-21T12:22:40.961Z,80.32
2018-02-21T12:25:07.418Z,80.08
2018-02-21T12:27:33.830Z,80.47
2018-02-21T12:30:00.443Z,80.50
2018-02-21T12:32:27.651Z,80.01
2018-02-21T12:34:54.351Z,79.78
2018-02-21T12:37:20.832Z,79.63
2018-02-21T12:39:47.657Z,79.42
2018-02-21T12:42:13.993Z,79.64
2018-02-21T12:44:40.430Z,79.60
2018-02-21T12:47:06.814Z,79.35
2018-02-21T12:49:33.224Z,79.94
2018-02-21T12:51:59.726Z,79.60
2018-02-21T12:54:26.198Z,79.52
2018-02-21T12:56:52.566Z,79.49
2018-02-21T12:59:19.085Z,79.38
2018-02-21T13:01:45.486Z,79.63
2018-02-21T13:04:12.163Z,79.82
2018-02-21T13:06:38.582Z,80.02
2018-02-21T13:09:05.175Z,80.21
2018-02-21T13:11:31.549Z,79.75
2018-02-21T13:13:58.017Z,79.98
2018-02-21T13:16:24.436Z,80.39
2018-02-21T13:18:50.839Z,80.22
2018-02-21T13:21:17.284Z,80.04
2018-02-21T13:23:43.762Z,80.28
2018-02-21T13:26:10.174Z,80.50
2018-02-21T13:28:36.573Z,80.69
2018-02-21T13:31:02.961Z,80.71
2018-02-21T13:33:35.830Z,80.32
2018-02-21T13:36:04.270Z,80.33
2018-02-21T13:38:30.699Z,80.40
2018-02-21T13:40:57.191Z,80.44
2018-02-21T13:43:23.554Z,80.85
2018-02-21T13:45:49.933Z,80.08
2018-02-21T13:48:16.357Z,79.97
2018-02-21T13:50:42.739Z,80.12
2018-02-21T13:55:53.716Z,80.22
2018-02-21T13:58:25.129Z,80.38
2018-02-21T14:00:51.736Z,80.66
2018-02-21T14:03:18.149Z,80.42
2018-02-21T14:05:44.621Z,80.30
2018-02-21T14:08:11.042Z,80.00
2018-02-21T14:10:37.510Z,79.15
2018-02-21T14:13:03.962Z,78.96
2018-02-21T14:15:30.457Z,79.63
2018-02-21T14:17:56.889Z,79.64
2018-02-21T14:20:23.385Z,79.66
2018-02-21T14:22:49.803Z,79.76
2018-02-21T14:25:16.215Z,79.68
2018-02-21T14:27:42.726Z,80.46
2018-02-21T14:30:09.134Z,80.62
2018-02-21T14:32:35.642Z,80.82
2018-02-21T14:35:02.163Z,80.80
2018-02-21T14:37:28.607Z,81.37
2018-02-21T14:39:55.041Z,81.88
2018-02-21T14:42:21.510Z,82.22
2018-02-21T14:44:48.094Z,82.62
2018-02-21T14:47:14.478Z,82.36
2018-02-21T14:49:40.991Z,81.42
2018-02-21T14:52:07.550Z,81.13
2018-02-21T14:54:34.031Z,81.54
2018-02-21T14:57:00.412Z,80.92
2018-02-21T14:59:26.790Z,80.76
2018-02-21T15:01:53.301Z,80.42
2018-02-21T15:04:19.718Z,81.45
2018-02-21T15:06:46.190Z,81.58
2018-02-21T15:09:12.769Z,81.60
2018-02-21T15:11:39.247Z,82.60
2018-02-21T15:14:05.637Z,82.46
2018-02-21T15:16:32.070Z,82.14
2018-02-21T15:18:58.442Z,81.70
2018-02-21T15:21:24.898Z,82.07
2018-02-21T15:23:51.354Z,82.25
2018-02-21T15:26:17.730Z,82.51
2018-02-21T15:28:44.274Z,82.64
2018-02-21T15:31:10.800Z,81.96
2018-02-21T15:33:37.198Z,81.29
2018-02-21T15:36:03.698Z,80.72
2018-02-21T15:38:30.183Z,80.62
2018-02-21T15:40:56.565Z,80.76
2018-02-21T15:43:23.159Z,81.11
2018-02-21T15:45:49.702Z,81.53
2018-02-21T15:48:16.195Z,81.65
2018-02-21T15:50:42.629Z,81.44
2018-02-21T15:53:09.122Z,81.79
2018-02-21T15:55:35.551Z,82.01
2018-02-21T15:58:01.981Z,82.02
2018-02-21T16:00:28.480Z,81.62
2018-02-21T16:02:54.827Z,81.70
2018-02-21T16:05:21.232Z,81.73
2018-02-21T16:07:47.913Z,82.03
2018-02-21T16:10:14.335Z,82.38
2018-02-21T16:12:40.731Z,82.04
2018-02-21T16:15:07.164Z,82.07
2018-02-21T16:17:33.685Z,82.53
2018-02-21T16:20:00.161Z,81.80
2018-02-21T16:22:26.645Z,81.77
2018-02-21T16:24:53.085Z,82.11
2018-02-21T16:27:19.505Z,82.84
2018-02-21T16:29:45.944Z,83.16
2018-02-21T16:32:12.361Z,83.46
2018-02-21T16:34:38.746Z,82.71
2018-02-21T16:37:05.226Z,82.12
2018-02-21T16:39:31.862Z,82.27
2018-02-21T16:41:58.265Z,82.12
2018-02-21T16:44:24.725Z,82.04
2018-02-21T16:46:51.129Z,81.81
2018-02-21T16:49:17.754Z,81.32
2018-02-21T16:51:44.214Z,81.35
2018-02-21T16:54:16.605Z,81.20
2018-02-21T16:56:43.113Z,81.48
2018-02-21T16:59:09.553Z,81.43
2018-02-21T17:01:35.906Z,81.51
2018-02-21T17:04:02.326Z,82.03
2018-02-21T17:06:28.798Z,82.51
2018-02-21T17:08:55.251Z,83.27
2018-02-21T17:11:21.666Z,83.06
2018-02-21T17:13:48.075Z,82.67
2018-02-21T17:16:14.525Z,83.05
2018-02-21T17:18:41.081Z,83.28
2018-02-21T17:21:07.425Z,83.70
2018-02-21T17:23:33.850Z,84.34
2018-02-21T17:26:00.447Z,84.55
2018-02-21T17:28:26.888Z,84.19
2018-02-21T17:30:53.334Z,84.11
2018-02-21T17:33:19.870Z,83.87
2018-02-21T17:35:46.302Z,83.39
2018-02-21T17:38:12.738Z,83.82
2018-02-21T17:40:39.269Z,83.41
2018-02-21T17:43:05.685Z,82.48
2018-02-21T17:45:32.137Z,82.17
2018-02-21T17:47:58.581Z,82.36
2018-02-21T17:50:25.062Z,82.07
2018-02-21T17:52:51.488Z,81.87
2018-02-21T17:55:17.902Z,82.07
2018-02-21T17:57:44.338Z,82.10
2018-02-21T18:00:10.815Z,82.11
2018-02-21T18:02:37.683Z,81.91
2018-02-21T18:05:04.179Z,81.63
2018-02-21T18:07:30.581Z,82.45
2018-02-21T18:09:57.166Z,82.73
2018-02-21T18:12:23.665Z,82.11
2018-02-21T18:14:50.048Z,82.30
2018-02-21T18:17:16.521Z,82.22
2018-02-21T18:19:43.708Z,82.28
2018-02-21T18:22:10.176Z,82.42
2018-02-21T18:24:36.617Z,82.21
2018-02-21T18:27:02.997Z,81.56
2018-02-21T18:29:29.406Z,81.56
2018-02-21T18:31:55.845Z,82.03
2018-02-21T18:34:22.468Z,81.58
2018-02-21T18:36:48.918Z,81.73
2018-02-21T18:39:15.481Z,81.71
2018-02-21T18:41:41.878Z,82.54
2018-02-21T18:44:08.246Z,82.55
2018-02-21T18:46:34.697Z,82.57
2018-02-21T18:49:01.153Z,82.53
2018-02-21T18:51:27.545Z,82.14
2018-02-21T18:53:53.989Z,81.74
2018-02-21T18:56:20.478Z,81.70
2018-02-21T18:58:46.933Z,81.96
2018-02-21T19:01:13.358Z,82.55
2018-02-21T19:03:39.742Z,82.28
2018-02-21T19:06:06.110Z,82.58
2018-02-21T19:08:32.550Z,82.69
2018-02-21T19:10:58.962Z,82.57
2018-02-21T19:13:25.391Z,82.22
2018-02-21T19:15:51.872Z,82.54
2018-02-21T19:18:18.324Z,82.62
2018-02-21T19:20:44.752Z,82.48
2018-02-21T19:23:11.227Z,82.49
2018-02-21T19:25:37.645Z,82.61
2018-02-21T19:28:04.037Z,82.35
2018-02-21T19:30:30.511Z,82.84
2018-02-21T19:32:56.921Z,83.34
2018-02-21T19:35:23.331Z,82.90
2018-02-21T19:37:49.728Z,83.08
2018-02-21T19:40:16.173Z,82.44
2018-02-21T19:42:42.550Z,81.81
2018-02-21T19:45:08.982Z,81.95
2018-02-21T19:47:35.414Z,81.45
2018-02-21T19:50:01.806Z,81.45
2018-02-21T19:52:28.237Z,81.28
2018-02-21T19:54:54.674Z,81.09
2018-02-21T19:57:21.125Z,81.22
2018-02-21T19:59:47.617Z,80.91
2018-02-21T20:02:13.987Z,81.05
2018-02-21T20:04:40.370Z,81.86
2018-02-21T20:07:06.815Z,81.87
2018-02-21T20:09:33.238Z,82.13
2018-02-21T20:11:59.692Z,82.90
2018-02-21T20:14:26.165Z,82.70
2018-02-21T20:16:52.546Z,82.24
2018-02-21T20:19:19.017Z,82.07
2018-02-21T20:21:45.510Z,81.99
2018-02-21T20:24:11.946Z,81.73
2018-02-21T20:26:38.374Z,81.77
2018-02-21T20:29:04.782Z,82.52
2018-02-21T20:31:31.191Z,82.38
2018-02-21T20:33:57.592Z,82.57
2018-02-21T20:36:24.032Z,82.31
2018-02-21T20:38:50.401Z,82.78
2018-02-21T20:41:16.796Z,83.15
2018-02-21T20:43:43.234Z,82.73
2018-02-21T20:46:09.638Z,82.42
2018-02-21T20:48:36.042Z,82.18
2018-02-21T20:51:02.396Z,82.24
2018-02-21T20:53:28.805Z,81.94
2018-02-21T20:55:55.286Z,82.76
2018-02-21T20:58:21.616Z,82.71
2018-02-21T21:00:47.981Z,82.35
2018-02-21T21:03:14.496Z,82.02
2018-02-21T21:05:40.916Z,81.92
2018-02-21T21:08:07.328Z,83.15
2018-02-21T21:10:33.761Z,82.86
2018-02-21T21:13:00.127Z,82.44
2018-02-21T21:15:26.554Z,82.65
2018-02-21T21:17:53.013Z,82.59
2018-02-21T21:20:19.387Z,82.90
2018-02-21T21:22:45.774Z,82.65
2018-02-21T21:25:12.209Z,82.40
2018-02-21T21:27:38.625Z,81.91
2018-02-21T21:30:05.358Z,81.48
2018-02-21T21:32:31.817Z,81.38
2018-02-21T21:34:58.163Z,81.20
2018-02-21T21:37:24.569Z,81.43
2018-02-21T21:39:50.958Z,81.56
2018-02-21T21:42:17.698Z,82.07
2018-02-21T21:44:44.142Z,82.45
2018-02-21T21:47:10.553Z,82.74
2018-02-21T21:49:37.100Z,81.97
2018-02-21T21:52:03.537Z,82.04
2018-02-21T21:54:29.902Z,82.21
2018-02-21T21:56:56.353Z,83.04
2018-02-21T21:59:22.769Z,82.38
2018-02-21T22:01:49.164Z,82.30
2018-02-21T22:04:15.577Z,82.11
2018-02-21T22:06:41.978Z,81.74
2018-02-21T22:09:08.362Z,81.72
2018-02-21T22:11:34.802Z,81.81
2018-02-21T22:14:01.214Z,81.54
2018-02-21T22:16:27.629Z,82.03
2018-02-21T22:18:54.125Z,81.96
2018-02-21T22:21:20.472Z,81.95
2018-02-21T22:23:46.883Z,81.34
2018-02-21T22:26:13.321Z,81.02
2018-02-21T22:28:39.689Z,80.86
2018-02-21T22:31:06.049Z,80.89
2018-02-21T22:33:32.626Z,80.75
2018-02-21T22:35:59.066Z,81.03
2018-02-21T22:38:25.521Z,81.75
2018-02-21T22:40:51.916Z,81.60
2018-02-21T22:43:18.390Z,82.04
2018-02-21T22:45:44.833Z,82.06
2018-02-21T22:48:11.249Z,81.89
2018-02-21T22:50:37.689Z,81.38
2018-02-21T22:53:04.165Z,81.04
2018-02-21T22:55:30.725Z,81.09
2018-02-21T22:57:57.150Z,80.77
2018-02-21T23:00:23.646Z,81.23
2018-02-21T23:02:50.105Z,81.35
2018-02-21T23:05:16.468Z,81.00
2018-02-21T23:07:42.845Z,80.80
2018-02-21T23:10:09.450Z,81.41
2018-02-21T23:12:35.832Z,81.48
2018-02-21T23:15:02.165Z,81.51
2018-02-21T23:17:28.640Z,81.82
2018-02-21T23:19:54.990Z,82.08
2018-02-21T23:22:21.361Z,82.08
2018-02-21T23:24:47.792Z,82.56
2018-02-21T23:27:14.222Z,83.09
2018-02-21T23:29:40.639Z,83.25
2018-02-21T23:32:07.038Z,82.72
2018-02-21T23:34:33.434Z,82.24
2018-02-21T23:36:59.762Z,82.26
2018-02-21T23:39:26.189Z,82.40
2018-02-21T23:41:52.585Z,81.96
2018-02-21T23:44:18.954Z,82.00
2018-02-21T23:46:45.398Z,81.94
2018-02-21T23:49:11.807Z,82.35
2018-02-21T23:51:38.237Z,82.19
2018-02-21T23:54:04.685Z,82.42
2018-02-21T23:56:31.073Z,82.26
2018-02-21T23:58:57.445Z,82.21
